sensor_id;sensor_type;location;lat;lon;timestamp;pressure;altitude;pressure_sealevel;temperature;humidity
35892;BME280;21993;42.672;23.296;2023-04-21T00:01:47;94312.13;;;13.67;56.13
35892;BME280;21993;42.672;23.296;2023-04-21T00:04:12;94309.81;;;13.64;55.96
35892;BME280;21993;42.672;23.296;2023-04-21T00:06:39;94308.47;;;13.60;55.93
35892;BME280;21993;42.672;23.296;2023-04-21T00:09:06;94304.53;;;13.56;56.05
35892;BME280;21993;42.672;23.296;2023-04-21T00:11:32;94296.28;;;13.59;55.75
35892;BME280;21993;42.672;23.296;2023-04-21T00:13:57;94293.47;;;13.61;55.79
35892;BME280;21993;42.672;23.296;2023-04-21T00:16:23;94300.41;;;13.70;55.34
35892;BME280;21993;42.672;23.296;2023-04-21T00:18:48;94295.63;;;13.65;55.61
35892;BME280;21993;42.672;23.296;2023-04-21T00:21:14;94303.03;;;13.62;55.28
35892;BME280;21993;42.672;23.296;2023-04-21T00:23:40;94296.63;;;13.64;55.44
35892;BME280;21993;42.672;23.296;2023-04-21T00:26:05;94300.75;;;13.67;55.59
35892;BME280;21993;42.672;23.296;2023-04-21T00:28:31;94300.41;;;13.70;55.38
35892;BME280;21993;42.672;23.296;2023-04-21T00:30:56;94301.09;;;13.72;55.42
35892;BME280;21993;42.672;23.296;2023-04-21T00:33:22;94302.06;;;13.63;55.44
35892;BME280;21993;42.672;23.296;2023-04-21T00:35:47;94304.53;;;13.56;55.54
35892;BME280;21993;42.672;23.296;2023-04-21T00:38:13;94301.25;;;13.54;55.55
35892;BME280;21993;42.672;23.296;2023-04-21T00:40:38;94308.97;;;13.56;55.27
35892;BME280;21993;42.672;23.296;2023-04-21T00:43:06;94313.59;;;13.45;55.26
35892;BME280;21993;42.672;23.296;2023-04-21T00:45:32;94307.16;;;13.56;55.25
35892;BME280;21993;42.672;23.296;2023-04-21T00:47:57;94310.63;;;13.57;55.33
35892;BME280;21993;42.672;23.296;2023-04-21T00:50:23;94299.75;;;13.60;55.36
35892;BME280;21993;42.672;23.296;2023-04-21T00:52:49;94294.81;;;13.57;55.17
35892;BME280;21993;42.672;23.296;2023-04-21T00:55:15;94301.56;;;13.59;54.89
35892;BME280;21993;42.672;23.296;2023-04-21T00:57:41;94295.13;;;13.53;55.05
35892;BME280;21993;42.672;23.296;2023-04-21T01:00:07;94287.88;;;13.47;55.15
35892;BME280;21993;42.672;23.296;2023-04-21T01:02:38;94297.91;;;13.52;54.73
35892;BME280;21993;42.672;23.296;2023-04-21T01:05:04;94288.38;;;13.51;54.95
35892;BME280;21993;42.672;23.296;2023-04-21T01:07:31;94293.81;;;13.49;55.04
35892;BME280;21993;42.672;23.296;2023-04-21T01:09:57;94288.69;;;13.40;55.22
35892;BME280;21993;42.672;23.296;2023-04-21T01:12:23;94292.97;;;13.41;55.28
35892;BME280;21993;42.672;23.296;2023-04-21T01:14:49;94288.53;;;13.49;55.04
35892;BME280;21993;42.672;23.296;2023-04-21T01:17:14;94290.69;;;13.46;54.74
35892;BME280;21993;42.672;23.296;2023-04-21T01:19:43;94293.63;;;13.43;55.07
35892;BME280;21993;42.672;23.296;2023-04-21T01:22:11;94288.84;;;13.38;55.08
35892;BME280;21993;42.672;23.296;2023-04-21T01:24:41;94292.59;;;13.19;55.96
35892;BME280;21993;42.672;23.296;2023-04-21T01:27:08;94292.72;;;13.18;56.03
35892;BME280;21993;42.672;23.296;2023-04-21T01:29:35;94286.84;;;13.24;55.59
35892;BME280;21993;42.672;23.296;2023-04-21T01:32:11;94285.03;;;13.24;55.68
35892;BME280;21993;42.672;23.296;2023-04-21T01:34:38;94281.91;;;13.21;55.51
35892;BME280;21993;42.672;23.296;2023-04-21T01:37:07;94281.88;;;13.13;55.80
35892;BME280;21993;42.672;23.296;2023-04-21T01:39:36;94274.50;;;13.24;55.60
35892;BME280;21993;42.672;23.296;2023-04-21T01:42:01;94276.13;;;13.26;55.61
35892;BME280;21993;42.672;23.296;2023-04-21T01:44:27;94276.66;;;13.21;55.43
35892;BME280;21993;42.672;23.296;2023-04-21T01:46:52;94275.09;;;13.18;55.47
35892;BME280;21993;42.672;23.296;2023-04-21T01:49:18;94282.56;;;13.23;55.26
35892;BME280;21993;42.672;23.296;2023-04-21T01:51:43;94271.50;;;13.19;55.76
35892;BME280;21993;42.672;23.296;2023-04-21T01:54:09;94275.09;;;13.18;55.77
35892;BME280;21993;42.672;23.296;2023-04-21T01:56:34;94275.66;;;13.22;55.62
35892;BME280;21993;42.672;23.296;2023-04-21T01:58:59;94279.78;;;13.24;55.62
35892;BME280;21993;42.672;23.296;2023-04-21T02:01:25;94286.38;;;13.20;55.64
35892;BME280;21993;42.672;23.296;2023-04-21T02:03:51;94279.53;;;13.10;56.09
35892;BME280;21993;42.672;23.296;2023-04-21T02:06:16;94278.41;;;13.12;55.94
35892;BME280;21993;42.672;23.296;2023-04-21T02:08:42;94283.81;;;13.11;55.97
35892;BME280;21993;42.672;23.296;2023-04-21T02:11:07;94283.69;;;13.12;55.72
35892;BME280;21993;42.672;23.296;2023-04-21T02:13:33;94276.44;;;13.14;55.68
35892;BME280;21993;42.672;23.296;2023-04-21T02:15:58;94279.69;;;13.08;55.58
35892;BME280;21993;42.672;23.296;2023-04-21T02:18:23;94282.66;;;13.05;56.07
35892;BME280;21993;42.672;23.296;2023-04-21T02:20:50;94283.16;;;13.09;55.53
35892;BME280;21993;42.672;23.296;2023-04-21T02:23:15;94276.06;;;13.01;55.68
35892;BME280;21993;42.672;23.296;2023-04-21T02:25:40;94270.47;;;13.04;55.54
35892;BME280;21993;42.672;23.296;2023-04-21T02:28:06;94280.19;;;12.95;56.23
35892;BME280;21993;42.672;23.296;2023-04-21T02:30:32;94282.31;;;13.00;55.95
35892;BME280;21993;42.672;23.296;2023-04-21T02:32:58;94277.53;;;12.95;56.11
35892;BME280;21993;42.672;23.296;2023-04-21T02:35:23;94282.66;;;12.97;56.40
35892;BME280;21993;42.672;23.296;2023-04-21T02:37:49;94275.22;;;12.92;56.53
35892;BME280;21993;42.672;23.296;2023-04-21T02:40:15;94277.19;;;12.90;56.77
35892;BME280;21993;42.672;23.296;2023-04-21T02:42:40;94284.13;;;13.00;56.83
35892;BME280;21993;42.672;23.296;2023-04-21T02:45:06;94279.03;;;12.98;57.07
35892;BME280;21993;42.672;23.296;2023-04-21T02:47:31;94278.50;;;12.94;56.51
35892;BME280;21993;42.672;23.296;2023-04-21T02:49:57;94278.34;;;12.88;56.58
35892;BME280;21993;42.672;23.296;2023-04-21T02:52:22;94283.06;;;12.76;57.34
35892;BME280;21993;42.672;23.296;2023-04-21T02:54:49;94284.59;;;12.87;56.56
35892;BME280;21993;42.672;23.296;2023-04-21T02:57:15;94290.69;;;12.87;57.47
35892;BME280;21993;42.672;23.296;2023-04-21T02:59:40;94283.13;;;12.92;56.91
35892;BME280;21993;42.672;23.296;2023-04-21T03:02:05;94285.78;;;13.01;56.95
35892;BME280;21993;42.672;23.296;2023-04-21T03:04:31;94283.16;;;13.09;56.92
35892;BME280;21993;42.672;23.296;2023-04-21T03:06:56;94286.28;;;13.04;56.56
35892;BME280;21993;42.672;23.296;2023-04-21T03:09:22;94286.81;;;13.16;56.60
35892;BME280;21993;42.672;23.296;2023-04-21T03:11:47;94286.03;;;13.23;56.03
35892;BME280;21993;42.672;23.296;2023-04-21T03:14:13;94285.22;;;13.23;56.57
35892;BME280;21993;42.672;23.296;2023-04-21T03:16:38;94276.44;;;13.14;56.33
35892;BME280;21993;42.672;23.296;2023-04-21T03:19:03;94284.16;;;13.16;56.62
35892;BME280;21993;42.672;23.296;2023-04-21T03:21:29;94281.69;;;13.14;56.54
35892;BME280;21993;42.672;23.296;2023-04-21T03:23:55;94283.34;;;13.15;56.44
35892;BME280;21993;42.672;23.296;2023-04-21T03:26:21;94279.34;;;12.87;56.80
35892;BME280;21993;42.672;23.296;2023-04-21T03:28:46;94290.56;;;12.97;57.31
35892;BME280;21993;42.672;23.296;2023-04-21T03:31:12;94283.34;;;13.15;56.56
35892;BME280;21993;42.672;23.296;2023-04-21T03:33:37;94282.53;;;13.15;56.62
35892;BME280;21993;42.672;23.296;2023-04-21T03:36:03;94288.59;;;13.07;56.47
35892;BME280;21993;42.672;23.296;2023-04-21T03:38:28;94295.03;;;13.13;56.46
35892;BME280;21993;42.672;23.296;2023-04-21T03:40:54;94291.75;;;13.19;55.96
35892;BME280;21993;42.672;23.296;2023-04-21T03:43:19;94295.59;;;13.24;56.47
35892;BME280;21993;42.672;23.296;2023-04-21T03:45:45;94293.47;;;12.86;56.99
35892;BME280;21993;42.672;23.296;2023-04-21T03:48:10;94297.28;;;12.91;57.10
35892;BME280;21993;42.672;23.296;2023-04-21T03:50:37;94294.34;;;13.11;56.61
35892;BME280;21993;42.672;23.296;2023-04-21T03:53:02;94298.66;;;13.04;56.40
35892;BME280;21993;42.672;23.296;2023-04-21T03:55:27;94300.94;;;13.07;56.81
35892;BME280;21993;42.672;23.296;2023-04-21T03:57:53;94299.53;;;13.20;56.38
35892;BME280;21993;42.672;23.296;2023-04-21T04:00:18;94312.16;;;13.17;56.69
35892;BME280;21993;42.672;23.296;2023-04-21T04:02:45;94306.13;;;13.24;56.50
35892;BME280;21993;42.672;23.296;2023-04-21T04:05:10;94312.56;;;13.30;56.21
35892;BME280;21993;42.672;23.296;2023-04-21T04:07:36;94314.03;;;13.24;56.29
35892;BME280;21993;42.672;23.296;2023-04-21T04:10:01;94318.84;;;13.29;56.36
35892;BME280;21993;42.672;23.296;2023-04-21T04:12:27;94313.41;;;13.31;56.22
35892;BME280;21993;42.672;23.296;2023-04-21T04:14:52;94312.75;;;13.29;56.47
35892;BME280;21993;42.672;23.296;2023-04-21T04:17:18;94312.88;;;13.27;56.55
35892;BME280;21993;42.672;23.296;2023-04-21T04:19:43;94330.19;;;13.30;56.46
35892;BME280;21993;42.672;23.296;2023-04-21T04:22:08;94325.06;;;13.28;56.35
35892;BME280;21993;42.672;23.296;2023-04-21T04:24:34;94325.59;;;13.32;55.83
35892;BME280;21993;42.672;23.296;2023-04-21T04:27:00;94338.75;;;13.32;56.22
35892;BME280;21993;42.672;23.296;2023-04-21T04:29:27;94343.38;;;13.30;56.48
35892;BME280;21993;42.672;23.296;2023-04-21T04:31:53;94335.94;;;13.25;56.27
35892;BME280;21993;42.672;23.296;2023-04-21T04:34:19;94347.47;;;13.24;56.11
35892;BME280;21993;42.672;23.296;2023-04-21T04:36:45;94344.19;;;13.30;56.02
35892;BME280;21993;42.672;23.296;2023-04-21T04:39:12;94342.41;;;13.31;56.05
35892;BME280;21993;42.672;23.296;2023-04-21T04:41:38;94339.44;;;13.42;56.04
35892;BME280;21993;42.672;23.296;2023-04-21T04:44:04;94346.03;;;13.38;56.15
35892;BME280;21993;42.672;23.296;2023-04-21T04:46:30;94345.31;;;13.28;56.58
35892;BME280;21993;42.672;23.296;2023-04-21T04:48:56;94343.88;;;13.33;56.32
35892;BME280;21993;42.672;23.296;2023-04-21T04:51:21;94346.84;;;13.30;56.69
35892;BME280;21993;42.672;23.296;2023-04-21T04:53:47;94340.78;;;13.46;56.03
35892;BME280;21993;42.672;23.296;2023-04-21T04:56:13;94353.00;;;13.55;55.95
35892;BME280;21993;42.672;23.296;2023-04-21T04:58:38;94345.75;;;13.57;56.10
35892;BME280;21993;42.672;23.296;2023-04-21T05:01:14;94349.84;;;13.60;55.68
35892;BME280;21993;42.672;23.296;2023-04-21T05:03:40;94355.28;;;13.58;55.75
35892;BME280;21993;42.672;23.296;2023-04-21T05:06:08;94346.22;;;13.61;55.81
35892;BME280;21993;42.672;23.296;2023-04-21T05:08:34;94346.56;;;13.74;56.06
35892;BME280;21993;42.672;23.296;2023-04-21T05:10:59;94349.69;;;13.69;55.92
35892;BME280;21993;42.672;23.296;2023-04-21T05:13:25;94352.31;;;13.69;56.07
35892;BME280;21993;42.672;23.296;2023-04-21T05:15:59;94347.75;;;13.71;56.25
35892;BME280;21993;42.672;23.296;2023-04-21T05:18:26;94352.19;;;13.63;56.07
35892;BME280;21993;42.672;23.296;2023-04-21T05:20:52;94355.31;;;13.74;56.13
35892;BME280;21993;42.672;23.296;2023-04-21T05:23:17;94351.69;;;13.67;55.75
35892;BME280;21993;42.672;23.296;2023-04-21T05:25:43;94355.97;;;13.68;56.03
35892;BME280;21993;42.672;23.296;2023-04-21T05:28:08;94347.75;;;13.79;55.79
35892;BME280;21993;42.672;23.296;2023-04-21T05:30:34;94349.22;;;13.82;55.87
35892;BME280;21993;42.672;23.296;2023-04-21T05:33:00;94353.50;;;13.91;56.03
35892;BME280;21993;42.672;23.296;2023-04-21T05:35:25;94358.78;;;13.83;55.94
35892;BME280;21993;42.672;23.296;2023-04-21T05:37:50;94358.97;;;13.90;56.17
35892;BME280;21993;42.672;23.296;2023-04-21T05:40:16;94353.84;;;13.80;56.53
35892;BME280;21993;42.672;23.296;2023-04-21T05:42:41;94351.22;;;13.88;56.52
35892;BME280;21993;42.672;23.296;2023-04-21T05:45:07;94355.66;;;13.96;56.68
35892;BME280;21993;42.672;23.296;2023-04-21T05:47:32;94355.34;;;14.07;56.61
35892;BME280;21993;42.672;23.296;2023-04-21T05:49:57;94352.03;;;14.05;55.89
35892;BME280;21993;42.672;23.296;2023-04-21T05:52:23;94353.34;;;14.01;56.07
35892;BME280;21993;42.672;23.296;2023-04-21T05:54:48;94356.31;;;14.06;55.89
35892;BME280;21993;42.672;23.296;2023-04-21T05:57:14;94357.81;;;14.08;56.34
35892;BME280;21993;42.672;23.296;2023-04-21T05:59:40;94354.81;;;14.12;56.21
35892;BME280;21993;42.672;23.296;2023-04-21T06:02:06;94355.31;;;14.15;56.23
35892;BME280;21993;42.672;23.296;2023-04-21T06:04:31;94347.41;;;14.15;56.43
35892;BME280;21993;42.672;23.296;2023-04-21T06:06:57;94348.72;;;14.11;56.53
35892;BME280;21993;42.672;23.296;2023-04-21T06:09:22;94348.88;;;14.34;56.27
35892;BME280;21993;42.672;23.296;2023-04-21T06:11:48;94341.94;;;14.33;56.43
35892;BME280;21993;42.672;23.296;2023-04-21T06:14:14;94340.13;;;14.50;55.74
35892;BME280;21993;42.672;23.296;2023-04-21T06:16:40;94351.84;;;14.47;57.25
35892;BME280;21993;42.672;23.296;2023-04-21T06:19:05;94337.78;;;14.63;55.70
35892;BME280;21993;42.672;23.296;2023-04-21T06:21:31;94348.03;;;14.50;56.26
35892;BME280;21993;42.672;23.296;2023-04-21T06:23:57;94349.84;;;14.66;55.47
35892;BME280;21993;42.672;23.296;2023-04-21T06:26:22;94347.63;;;14.77;55.28
35892;BME280;21993;42.672;23.296;2023-04-21T06:28:47;94336.38;;;14.91;55.44
35892;BME280;21993;42.672;23.296;2023-04-21T06:31:13;94348.88;;;15.06;54.80
35892;BME280;21993;42.672;23.296;2023-04-21T06:33:40;94343.41;;;15.07;54.68
35892;BME280;21993;42.672;23.296;2023-04-21T06:36:06;94332.84;;;15.07;54.94
35892;BME280;21993;42.672;23.296;2023-04-21T06:38:31;94332.09;;;15.21;54.53
35892;BME280;21993;42.672;23.296;2023-04-21T06:40:57;94339.38;;;15.19;54.87
35892;BME280;21993;42.672;23.296;2023-04-21T06:43:22;94336.03;;;15.26;54.83
35892;BME280;21993;42.672;23.296;2023-04-21T06:45:47;94325.88;;;15.37;54.38
35892;BME280;21993;42.672;23.296;2023-04-21T06:48:13;94332.34;;;15.35;54.52
35892;BME280;21993;42.672;23.296;2023-04-21T06:50:38;94330.56;;;15.66;54.04
35892;BME280;21993;42.672;23.296;2023-04-21T06:53:04;94343.41;;;15.69;53.84
35892;BME280;21993;42.672;23.296;2023-04-21T06:55:29;94335.72;;;15.83;53.16
35892;BME280;21993;42.672;23.296;2023-04-21T06:57:55;94327.00;;;15.97;52.88
35892;BME280;21993;42.672;23.296;2023-04-21T07:00:20;94335.06;;;16.03;53.00
35892;BME280;21993;42.672;23.296;2023-04-21T07:02:46;94321.22;;;16.16;52.44
35892;BME280;21993;42.672;23.296;2023-04-21T07:05:12;94321.91;;;16.33;52.20
35892;BME280;21993;42.672;23.296;2023-04-21T07:07:37;94322.09;;;16.46;51.90
35892;BME280;21993;42.672;23.296;2023-04-21T07:10:03;94318.91;;;16.51;52.46
35892;BME280;21993;42.672;23.296;2023-04-21T07:12:28;94329.59;;;16.57;51.92
35892;BME280;21993;42.672;23.296;2023-04-21T07:53:49;94318.81;;;16.44;51.91
35892;BME280;21993;42.672;23.296;2023-04-21T07:56:14;94330.44;;;16.73;51.82
35892;BME280;21993;42.672;23.296;2023-04-21T07:58:40;94332.00;;;16.97;50.00
35892;BME280;21993;42.672;23.296;2023-04-21T08:01:06;94333.00;;;17.10;49.91
35892;BME280;21993;42.672;23.296;2023-04-21T08:03:31;94326.06;;;17.24;49.74
35892;BME280;21993;42.672;23.296;2023-04-21T08:05:56;94326.75;;;17.33;49.25
35892;BME280;21993;42.672;23.296;2023-04-21T08:08:22;94324.97;;;17.40;48.66
35892;BME280;21993;42.672;23.296;2023-04-21T08:10:47;94323.41;;;17.60;48.53
35892;BME280;21993;42.672;23.296;2023-04-21T08:13:13;94323.28;;;17.68;48.69
35892;BME280;21993;42.672;23.296;2023-04-21T08:15:38;94316.31;;;17.67;48.87
35892;BME280;21993;42.672;23.296;2023-04-21T08:18:04;94322.75;;;17.94;47.72
35892;BME280;21993;42.672;23.296;2023-04-21T08:20:29;94315.97;;;18.13;47.38
35892;BME280;21993;42.672;23.296;2023-04-21T08:22:55;94312.69;;;18.11;47.14
35892;BME280;21993;42.672;23.296;2023-04-21T08:25:20;94314.81;;;18.22;47.05
35892;BME280;21993;42.672;23.296;2023-04-21T08:27:46;94310.22;;;17.88;47.06
35892;BME280;21993;42.672;23.296;2023-04-21T08:30:12;94313.94;;;17.94;47.21
35892;BME280;21993;42.672;23.296;2023-04-21T08:32:37;94306.88;;;18.01;47.47
35892;BME280;21993;42.672;23.296;2023-04-21T08:35:03;94309.94;;;18.05;47.53
35892;BME280;21993;42.672;23.296;2023-04-21T08:37:28;94310.28;;;18.16;47.41
35892;BME280;21993;42.672;23.296;2023-04-21T08:39:54;94305.78;;;18.17;46.48
35892;BME280;21993;42.672;23.296;2023-04-21T08:42:19;94308.03;;;18.20;46.89
35892;BME280;21993;42.672;23.296;2023-04-21T08:44:46;94315.75;;;18.15;46.91
35892;BME280;21993;42.672;23.296;2023-04-21T08:47:13;94313.63;;;18.04;47.10
35892;BME280;21993;42.672;23.296;2023-04-21T08:49:40;94311.22;;;17.87;47.55
35892;BME280;21993;42.672;23.296;2023-04-21T08:52:07;94306.41;;;17.97;47.27
35892;BME280;21993;42.672;23.296;2023-04-21T08:54:33;94313.88;;;18.09;47.20
35892;BME280;21993;42.672;23.296;2023-04-21T08:57:00;94299.66;;;18.16;47.50
35892;BME280;21993;42.672;23.296;2023-04-21T08:59:27;94305.25;;;18.07;48.06
35892;BME280;21993;42.672;23.296;2023-04-21T09:02:13;94299.94;;;18.07;47.95
35892;BME280;21993;42.672;23.296;2023-04-21T09:04:42;94289.25;;;18.21;47.80
35892;BME280;21993;42.672;23.296;2023-04-21T09:07:07;94286.44;;;18.29;47.11
35892;BME280;21993;42.672;23.296;2023-04-21T09:09:50;94277.31;;;18.39;47.19
35892;BME280;21993;42.672;23.296;2023-04-21T09:12:17;94286.25;;;18.59;46.96
35892;BME280;21993;42.672;23.296;2023-04-21T09:14:42;94291.38;;;18.61;45.83
35892;BME280;21993;42.672;23.296;2023-04-21T09:17:08;94277.34;;;18.67;46.12
35892;BME280;21993;42.672;23.296;2023-04-21T09:19:33;94269.09;;;18.62;46.89
35892;BME280;21993;42.672;23.296;2023-04-21T09:21:59;94270.28;;;18.87;46.09
35892;BME280;21993;42.672;23.296;2023-04-21T09:24:25;94268.69;;;18.99;45.20
35892;BME280;21993;42.672;23.296;2023-04-21T09:26:51;94274.63;;;18.95;45.39
35892;BME280;21993;42.672;23.296;2023-04-21T09:29:17;94259.06;;;18.98;44.65
35892;BME280;21993;42.672;23.296;2023-04-21T09:31:46;94259.69;;;18.94;44.79
35892;BME280;21993;42.672;23.296;2023-04-21T09:34:23;94268.09;;;19.04;44.28
35892;BME280;21993;42.672;23.296;2023-04-21T09:37:02;94263.53;;;18.91;44.80
35892;BME280;21993;42.672;23.296;2023-04-21T09:39:28;94256.19;;;18.93;44.93
35892;BME280;21993;42.672;23.296;2023-04-21T09:41:55;94251.19;;;19.18;43.76
35892;BME280;21993;42.672;23.296;2023-04-21T09:44:22;94253.25;;;19.29;43.80
35892;BME280;21993;42.672;23.296;2023-04-21T09:46:49;94258.81;;;19.34;45.33
35892;BME280;21993;42.672;23.296;2023-04-21T09:49:16;94246.53;;;19.47;43.79
35892;BME280;21993;42.672;23.296;2023-04-21T09:51:42;94267.22;;;19.45;44.58
35892;BME280;21993;42.672;23.296;2023-04-21T09:54:19;94249.28;;;19.66;43.07
35892;BME280;21993;42.672;23.296;2023-04-21T09:56:48;94255.22;;;19.68;42.33
35892;BME280;21993;42.672;23.296;2023-04-21T09:59:19;94256.44;;;19.59;42.53
35892;BME280;21993;42.672;23.296;2023-04-21T10:01:47;94243.75;;;19.68;42.50
35892;BME280;21993;42.672;23.296;2023-04-21T10:04:14;94242.84;;;19.48;43.35
35892;BME280;21993;42.672;23.296;2023-04-21T10:06:40;94234.66;;;19.49;43.59
35892;BME280;21993;42.672;23.296;2023-04-21T10:09:07;94247.22;;;19.75;41.31
35892;BME280;21993;42.672;23.296;2023-04-21T10:11:34;94247.69;;;19.85;40.54
35892;BME280;21993;42.672;23.296;2023-04-21T10:14:01;94242.34;;;19.85;40.14
35892;BME280;21993;42.672;23.296;2023-04-21T10:16:27;94234.16;;;19.93;39.99
35892;BME280;21993;42.672;23.296;2023-04-21T10:18:52;94220.22;;;19.85;39.51
35892;BME280;21993;42.672;23.296;2023-04-21T10:21:19;94234.34;;;19.92;40.12
35892;BME280;21993;42.672;23.296;2023-04-21T10:23:50;94235.19;;;19.86;41.24
35892;BME280;21993;42.672;23.296;2023-04-21T10:26:26;94239.03;;;19.83;42.27
35892;BME280;21993;42.672;23.296;2023-04-21T10:31:35;94242.94;;;19.61;41.57
35892;BME280;21993;42.672;23.296;2023-04-21T10:36:30;94233.69;;;19.57;40.89
35892;BME280;21993;42.672;23.296;2023-04-21T10:38:55;94237.81;;;19.59;40.91
35892;BME280;21993;42.672;23.296;2023-04-21T10:41:26;94234.28;;;19.52;41.64
35892;BME280;21993;42.672;23.296;2023-04-21T10:43:52;94234.03;;;19.40;42.21
35892;BME280;21993;42.672;23.296;2023-04-21T10:46:43;94241.81;;;19.42;42.85
35892;BME280;21993;42.672;23.296;2023-04-21T10:49:12;94237.50;;;19.41;42.59
35892;BME280;21993;42.672;23.296;2023-04-21T10:54:37;94242.47;;;19.44;41.87
35892;BME280;21993;42.672;23.296;2023-04-21T10:57:08;94241.19;;;19.40;41.11
35892;BME280;21993;42.672;23.296;2023-04-21T10:59:34;94243.44;;;19.30;41.62
35892;BME280;21993;42.672;23.296;2023-04-21T11:02:04;94245.50;;;19.34;41.63
35892;BME280;21993;42.672;23.296;2023-04-21T11:04:30;94241.59;;;19.30;41.81
35892;BME280;21993;42.672;23.296;2023-04-21T11:09:35;94235.84;;;19.27;42.11
35892;BME280;21993;42.672;23.296;2023-04-21T11:12:03;94234.22;;;19.26;41.08
35892;BME280;21993;42.672;23.296;2023-04-21T11:14:31;94233.56;;;19.24;40.94
35892;BME280;21993;42.672;23.296;2023-04-21T11:16:56;94221.91;;;19.18;41.72
35892;BME280;21993;42.672;23.296;2023-04-21T11:19:22;94218.47;;;19.37;41.45
35892;BME280;21993;42.672;23.296;2023-04-21T11:21:49;94219.31;;;19.45;41.45
35892;BME280;21993;42.672;23.296;2023-04-21T11:24:15;94219.72;;;19.48;41.90
35892;BME280;21993;42.672;23.296;2023-04-21T11:26:40;94217.72;;;19.57;41.14
35892;BME280;21993;42.672;23.296;2023-04-21T11:29:09;94222.81;;;19.52;41.54
35892;BME280;21993;42.672;23.296;2023-04-21T11:31:37;94219.31;;;19.45;40.90
35892;BME280;21993;42.672;23.296;2023-04-21T11:34:04;94227.09;;;19.46;40.18
35892;BME280;21993;42.672;23.296;2023-04-21T11:36:42;94227.50;;;19.43;40.75
35892;BME280;21993;42.672;23.296;2023-04-21T11:39:13;94233.00;;;19.41;41.55
35892;BME280;21993;42.672;23.296;2023-04-21T11:41:45;94230.94;;;19.30;42.13
35892;BME280;21993;42.672;23.296;2023-04-21T11:44:12;94222.72;;;19.25;41.55
35892;BME280;21993;42.672;23.296;2023-04-21T11:46:44;94229.09;;;19.31;40.50
35892;BME280;21993;42.672;23.296;2023-04-21T11:49:11;94223.13;;;19.22;40.59
35892;BME280;21993;42.672;23.296;2023-04-21T11:51:39;94223.56;;;19.19;40.93
35892;BME280;21993;42.672;23.296;2023-04-21T11:54:09;94223.13;;;19.16;40.40
35892;BME280;21993;42.672;23.296;2023-04-21T11:56:40;94226.63;;;19.23;40.01
35892;BME280;21993;42.672;23.296;2023-04-21T11:59:11;94221.06;;;19.11;40.18
35892;BME280;21993;42.672;23.296;2023-04-21T12:01:49;94228.81;;;19.06;40.00
35892;BME280;21993;42.672;23.296;2023-04-21T12:04:17;94229.06;;;19.18;40.24
35892;BME280;21993;42.672;23.296;2023-04-21T12:06:47;94233.97;;;19.14;40.41
35892;BME280;21993;42.672;23.296;2023-04-21T12:09:19;94228.44;;;19.16;39.92
35892;BME280;21993;42.672;23.296;2023-04-21T12:11:50;94231.09;;;19.16;39.83
35892;BME280;21993;42.672;23.296;2023-04-21T12:14:17;94237.84;;;19.11;39.24
35892;BME280;21993;42.672;23.296;2023-04-21T12:16:43;94218.41;;;19.11;38.81
35892;BME280;21993;42.672;23.296;2023-04-21T12:19:21;94226.59;;;19.09;39.36
35892;BME280;21993;42.672;23.296;2023-04-21T12:21:52;94230.72;;;19.19;39.63
35892;BME280;21993;42.672;23.296;2023-04-21T12:24:17;94232.13;;;19.15;39.25
35892;BME280;21993;42.672;23.296;2023-04-21T12:26:43;94237.69;;;19.20;39.24
35892;BME280;21993;42.672;23.296;2023-04-21T12:29:08;94233.38;;;19.25;39.65
35892;BME280;21993;42.672;23.296;2023-04-21T12:31:34;94233.75;;;19.16;39.99
35892;BME280;21993;42.672;23.296;2023-04-21T12:33:59;94233.75;;;19.16;39.93
35892;BME280;21993;42.672;23.296;2023-04-21T12:36:25;94234.81;;;19.21;40.25
35892;BME280;21993;42.672;23.296;2023-04-21T12:38:52;94228.50;;;19.29;39.47
35892;BME280;21993;42.672;23.296;2023-04-21T12:41:17;94227.06;;;19.26;39.62
35892;BME280;21993;42.672;23.296;2023-04-21T12:43:43;94229.91;;;19.31;40.09
35892;BME280;21993;42.672;23.296;2023-04-21T12:46:08;94226.06;;;19.34;39.17
35892;BME280;21993;42.672;23.296;2023-04-21T12:48:34;94223.41;;;19.34;39.17
35892;BME280;21993;42.672;23.296;2023-04-21T12:50:59;94226.22;;;19.32;39.27
35892;BME280;21993;42.672;23.296;2023-04-21T12:53:25;94226.22;;;19.19;39.13
35892;BME280;21993;42.672;23.296;2023-04-21T12:55:50;94219.88;;;19.20;39.51
35892;BME280;21993;42.672;23.296;2023-04-21T12:58:16;94216.34;;;19.06;40.33
35892;BME280;21993;42.672;23.296;2023-04-21T13:00:41;94224.56;;;19.18;40.75
35892;BME280;21993;42.672;23.296;2023-04-21T13:03:07;94220.06;;;19.25;40.69
35892;BME280;21993;42.672;23.296;2023-04-21T13:05:33;94216.81;;;19.30;40.59
35892;BME280;21993;42.672;23.296;2023-04-21T13:07:58;94216.00;;;19.29;40.69
35892;BME280;21993;42.672;23.296;2023-04-21T13:10:23;94211.91;;;19.33;41.00
35892;BME280;21993;42.672;23.296;2023-04-21T13:12:49;94209.25;;;19.33;40.46
35892;BME280;21993;42.672;23.296;2023-04-21T13:15:15;94209.25;;;19.40;39.95
35892;BME280;21993;42.672;23.296;2023-04-21T13:17:40;94209.88;;;19.35;40.33
35892;BME280;21993;42.672;23.296;2023-04-21T13:20:06;94206.38;;;19.41;40.20
35892;BME280;21993;42.672;23.296;2023-04-21T13:22:32;94211.53;;;19.43;40.47
35892;BME280;21993;42.672;23.296;2023-04-21T13:24:57;94202.94;;;19.48;40.53
35892;BME280;21993;42.672;23.296;2023-04-21T13:27:23;94207.22;;;19.49;40.18
35892;BME280;21993;42.672;23.296;2023-04-21T13:29:48;94211.53;;;19.50;40.59
35892;BME280;21993;42.672;23.296;2023-04-21T13:32:14;94203.75;;;19.55;40.59
35892;BME280;21993;42.672;23.296;2023-04-21T13:34:40;94199.69;;;19.59;39.42
35892;BME280;21993;42.672;23.296;2023-04-21T13:37:05;94201.31;;;19.53;39.68